David Allan — VNAT — position and weather

sailwx.info

Track history (hours):
 
Tides and Currents Weather Stations Pressure Air Temp Water Temp Dewpoint Dewpoint Depression Visibility Wind Speed Wind Dir Waves Ship Positions

David Allan

Last reported at 2017-Sep-19 16:59 UTC. Time now 2017-Sep-19 17:18 UTC.
Position S 32°55' E 151°46'.

Length 70 m.

Type: Dredging. MMSI: 503541000.

Date/timePositionNaut miles runAvg speedWind from/ knotsBaromVisibWave heightAir tempDewpointWater temp
2017-Sep-19 16:59S 32°55' E 151°46'0 0.0
2017-Sep-19 16:29S 32°55' E 151°46'0 0.0
2017-Sep-19 15:59S 32°55' E 151°46'0 0.0
2017-Sep-19 15:29S 32°55' E 151°46'0 0.0
2017-Sep-19 14:59S 32°55' E 151°46'0 0.0
2017-Sep-19 14:29S 32°55' E 151°46'0 0.0
2017-Sep-19 13:59S 32°55' E 151°46'0 0.0
2017-Sep-19 13:29S 32°55' E 151°46'0 0.0
2017-Sep-19 12:59S 32°55' E 151°46'0 0.0
2017-Sep-19 12:29S 32°55' E 151°46'0 0.0
2017-Sep-19 11:59S 32°55' E 151°46'0 0.0
2017-Sep-19 11:29S 32°55' E 151°46'0 0.0
2017-Sep-19 10:59S 32°55' E 151°46'0 0.0
2017-Sep-19 10:29S 32°55' E 151°46'0 0.0
2017-Sep-19 09:59S 32°55' E 151°46'0 0.0
2017-Sep-19 09:29S 32°55' E 151°46'0 0.0
2017-Sep-19 08:59S 32°55' E 151°46'0 0.0
2017-Sep-19 08:29S 32°55' E 151°46'0 0.0
2017-Sep-19 07:59S 32°55' E 151°46'0 0.0
2017-Sep-19 07:29S 32°55' E 151°46'0 0.0
2017-Sep-19 06:59S 32°55' E 151°46'0 0.0
2017-Sep-19 06:29S 32°55' E 151°46'0 0.0
2017-Sep-19 05:59S 32°55' E 151°46'0 0.0
2017-Sep-19 05:29S 32°55' E 151°46'0 0.0
2017-Sep-19 04:59S 32°55' E 151°46'0 0.0
2017-Sep-19 04:29S 32°55' E 151°46'0 0.0
2017-Sep-19 03:59S 32°55' E 151°46'0 0.0
2017-Sep-19 03:26S 32°55' E 151°46'0 0.0
2017-Sep-19 02:59S 32°55' E 151°46'2 4.8
2017-Sep-19 02:30S 32°56' E 151°49'1 2.3
2017-Sep-19 02:01S 32°55' E 151°48'1 1.1
2017-Sep-19 01:30S 32°55' E 151°48'0 0.0
2017-Sep-19 01:00S 32°55' E 151°48'0 0.0
2017-Sep-19 00:30S 32°55' E 151°48'0 0.1
2017-Sep-19 00:00S 32°55' E 151°48'1 1.6
2017-Sep-18 23:30S 32°54' E 151°48'1 1.3
2017-Sep-18 22:57S 32°55' E 151°48'0 0.1
2017-Sep-18 22:30S 32°55' E 151°48'0 0.9
2017-Sep-18 22:00S 32°55' E 151°49'1 1.4
2017-Sep-18 21:31S 32°55' E 151°48'1 2.5
2017-Sep-18 20:59S 32°55' E 151°46'1 1.4
2017-Sep-18 20:30S 32°54' E 151°46'0 0.0
2017-Sep-18 20:00S 32°54' E 151°46'0 0.0
2017-Sep-18 19:30S 32°54' E 151°46'0 0.0
2017-Sep-18 19:00S 32°54' E 151°46'0 0.0
2017-Sep-18 18:30S 32°54' E 151°46'0 0.0
2017-Sep-18 18:00S 32°54' E 151°46'0 0.0
2017-Sep-18 17:30S 32°54' E 151°46'0 0.0
2017-Sep-18 17:00S 32°54' E 151°46'0 0.0
2017-Sep-18 16:30S 32°54' E 151°46'0 0.0
2017-Sep-18 16:00S 32°54' E 151°46'0 0.0
2017-Sep-18 15:30S 32°54' E 151°46'0 0.0
2017-Sep-18 15:00S 32°54' E 151°46'0 0.0
2017-Sep-18 14:30S 32°54' E 151°46'0 0.0
2017-Sep-18 14:00S 32°54' E 151°46'0 0.0
2017-Sep-18 13:30S 32°54' E 151°46'0 0.0
2017-Sep-18 13:00S 32°54' E 151°46'0 0.0
2017-Sep-18 12:30S 32°54' E 151°46'0 0.0
2017-Sep-18 12:00S 32°54' E 151°46'0 0.0
2017-Sep-18 11:30S 32°54' E 151°46'0 0.0
2017-Sep-18 11:00S 32°54' E 151°46'0 0.0
2017-Sep-18 10:30S 32°54' E 151°46'0 0.0
2017-Sep-18 10:00S 32°54' E 151°46'0 0.0
2017-Sep-18 09:30S 32°54' E 151°46'0 0.0
2017-Sep-18 09:00S 32°54' E 151°46'0 0.0
2017-Sep-18 08:30S 32°54' E 151°46'0 0.0
2017-Sep-18 08:00S 32°54' E 151°46'0 0.0
2017-Sep-18 07:30S 32°54' E 151°46'3 5.6
2017-Sep-18 07:00S 32°56' E 151°49'2 4.1
2017-Sep-18 06:30S 32°55' E 151°47'1 2.8
2017-Sep-18 06:00S 32°55' E 151°48'0 0.1
2017-Sep-18 05:30S 32°55' E 151°48'2 3.4
2017-Sep-18 04:55S 32°54' E 151°46'2 4.2
2017-Sep-18 04:30S 32°55' E 151°48'0 0.2
2017-Sep-18 04:00S 32°55' E 151°48'2 3.1
2017-Sep-18 03:28S 32°54' E 151°46'1 3.2
2017-Sep-18 03:00S 32°55' E 151°47'2 3.8
2017-Sep-18 02:31S 32°56' E 151°49'3 5.3
2017-Sep-18 02:00S 32°54' E 151°46'2 3.4
2017-Sep-18 01:30S 32°55' E 151°47'1 2.1
2017-Sep-18 01:00S 32°55' E 151°48'2 2.4
2017-Sep-18 00:13S 32°54' E 151°46'1 6.4
2017-Sep-18 00:00S 32°55' E 151°47'1 2.9
2017-Sep-17 23:30S 32°55' E 151°49'2 3.0
2017-Sep-17 22:55S 32°55' E 151°47'2 4.8
2017-Sep-17 22:30S 32°56' E 151°49'2 3.9
2017-Sep-17 22:00S 32°55' E 151°47'1 1.4
2017-Sep-17 21:31S 32°55' E 151°47'1 1.8
2017-Sep-17 21:01S 32°55' E 151°48'2 3.2
2017-Sep-17 20:26S 32°54' E 151°46'0 0.1
2017-Sep-17 19:59S 32°54' E 151°46'0 0.0
2017-Sep-17 19:29S 32°54' E 151°46'0 0.0
2017-Sep-17 18:59S 32°54' E 151°46'0 0.0
2017-Sep-17 18:29S 32°54' E 151°46'0 0.0
2017-Sep-17 17:59S 32°54' E 151°46'0 0.0
2017-Sep-17 17:29S 32°54' E 151°46'0 0.0
2017-Sep-17 16:59S 32°54' E 151°46'0 0.0
2017-Sep-17 16:29S 32°54' E 151°46'0 0.0
2017-Sep-17 15:59S 32°54' E 151°46'0 0.0
2017-Sep-17 15:29S 32°54' E 151°46'0 0.0
2017-Sep-17 14:59S 32°54' E 151°46'0 0.0
2017-Sep-17 14:29S 32°54' E 151°46'0 0.0
2017-Sep-17 13:59S 32°54' E 151°46'0 0.0
2017-Sep-17 13:29S 32°54' E 151°46'0 0.0
2017-Sep-17 12:59S 32°54' E 151°46'0 0.0
2017-Sep-17 12:29S 32°54' E 151°46'0 0.0
2017-Sep-17 11:59S 32°54' E 151°46'0 0.0
2017-Sep-17 11:29S 32°54' E 151°46'0 0.0
2017-Sep-17 10:59S 32°54' E 151°46'0 0.0
2017-Sep-17 10:29S 32°54' E 151°46'0 0.0
2017-Sep-17 09:59S 32°54' E 151°46'0 0.0
2017-Sep-17 09:29S 32°54' E 151°46'0 0.0
2017-Sep-17 08:59S 32°54' E 151°46'0 0.0
2017-Sep-17 08:29S 32°54' E 151°46'0 0.0
2017-Sep-17 07:59S 32°54' E 151°46'0 0.0
2017-Sep-17 07:29S 32°54' E 151°46'0 0.3
2017-Sep-17 06:59S 32°54' E 151°46'1 2.9
2017-Sep-17 06:30S 32°55' E 151°47'1 2.0
2017-Sep-17 06:00S 32°55' E 151°48'2 3.7
2017-Sep-17 05:28S 32°54' E 151°46'1 2.1
2017-Sep-17 05:00S 32°55' E 151°47'2 3.2
2017-Sep-17 04:30S 32°55' E 151°48'2 3.6
2017-Sep-17 03:57S 32°54' E 151°46'2 3.6
2017-Sep-17 03:30S 32°55' E 151°48'1 1.3
2017-Sep-17 03:00S 32°55' E 151°47'1 2.8
2017-Sep-17 02:30S 32°54' E 151°46'3 6.5
2017-Sep-17 02:00S 32°56' E 151°49'2 3.7
2017-Sep-17 01:28S 32°55' E 151°47'1 2.9
2017-Sep-17 00:57S 32°54' E 151°46'1 3.0
2017-Sep-17 00:30S 32°55' E 151°47'1 1.9
2017-Sep-17 00:00S 32°55' E 151°48'2 3.3
2017-Sep-16 23:29S 32°54' E 151°46'1 2.1
2017-Sep-16 23:00S 32°55' E 151°47'2 4.9
2017-Sep-16 22:30S 32°56' E 151°49'3 5.6
2017-Sep-16 21:58S 32°54' E 151°46'1 2.7
2017-Sep-16 21:30S 32°55' E 151°47'2 4.4
2017-Sep-16 21:00S 32°56' E 151°49'3 6.1
2017-Sep-16 20:30S 32°54' E 151°46'0 0.9
2017-Sep-16 20:00S 32°54' E 151°46'0 0.0
2017-Sep-16 19:30S 32°54' E 151°46'0 0.0
2017-Sep-16 19:00S 32°54' E 151°46'0 0.0
2017-Sep-16 18:30S 32°54' E 151°46'0 0.0
2017-Sep-16 18:00S 32°54' E 151°46'0 0.0
2017-Sep-16 17:30S 32°54' E 151°46'0 0.0
2017-Sep-16 17:00S 32°54' E 151°46'0 0.0
2017-Sep-16 16:30S 32°54' E 151°46'0 0.0
2017-Sep-16 16:00S 32°54' E 151°46'0 0.0
2017-Sep-16 15:30S 32°54' E 151°46'0 0.0
2017-Sep-16 15:00S 32°54' E 151°46'0 0.0
2017-Sep-16 14:30S 32°54' E 151°46'0 0.0
2017-Sep-16 14:00S 32°54' E 151°46'0 0.0
2017-Sep-16 13:30S 32°54' E 151°46'0 0.0
2017-Sep-16 13:00S 32°54' E 151°46'0 0.0
2017-Sep-16 12:30S 32°54' E 151°46'0 0.0
2017-Sep-16 12:00S 32°54' E 151°46'0 0.0
2017-Sep-16 11:30S 32°54' E 151°46'0 0.0
2017-Sep-16 11:00S 32°54' E 151°46'0 0.0
2017-Sep-16 10:30S 32°54' E 151°46'0 0.0
2017-Sep-16 10:00S 32°54' E 151°46'0 0.0
2017-Sep-16 09:30S 32°54' E 151°46'0 0.0
2017-Sep-16 09:00S 32°54' E 151°46'0 0.0
2017-Sep-16 08:30S 32°54' E 151°46'0 0.0
2017-Sep-16 08:00S 32°54' E 151°46'0 0.0
2017-Sep-16 07:30S 32°54' E 151°46'1 1.4
2017-Sep-16 07:00S 32°55' E 151°46'1 1.2
2017-Sep-16 06:30S 32°55' E 151°47'2 3.5
2017-Sep-16 06:00S 32°55' E 151°49'2 3.7
2017-Sep-16 05:28S 32°55' E 151°46'2 5.0
2017-Sep-16 05:01S 32°55' E 151°49'2 4.1
2017-Sep-16 04:31S 32°55' E 151°47'0 0.1
2017-Sep-16 04:00S 32°55' E 151°46'2 3.5
2017-Sep-16 03:30S 32°55' E 151°49'2 3.4
2017-Sep-16 02:57S 32°55' E 151°46'2 3.8
2017-Sep-16 02:30S 32°55' E 151°48'1 2.4
2017-Sep-16 02:00S 32°55' E 151°47'1 1.8
2017-Sep-16 01:30S 32°55' E 151°46'3 5.8
2017-Sep-16 01:01S 32°56' E 151°49'3 5.5
2017-Sep-16 00:30S 32°55' E 151°46'1 1.8
2017-Sep-16 00:00S 32°55' E 151°47'1 2.7
2017-Sep-15 23:30S 32°55' E 151°49'1 2.7
2017-Sep-15 23:00S 32°55' E 151°47'1 1.8
2017-Sep-15 22:30S 32°55' E 151°46'2 5.1
2017-Sep-15 22:00S 32°56' E 151°49'2 4.6
2017-Sep-15 21:30S 32°55' E 151°47'2 4.7
2017-Sep-15 21:00S 32°56' E 151°49'3 5.4
2017-Sep-15 20:31S 32°54' E 151°46'0 0.6
2017-Sep-15 20:00S 32°54' E 151°46'0 0.0
2017-Sep-15 19:30S 32°54' E 151°46'0 0.0
2017-Sep-15 18:59S 32°54' E 151°46'0 0.0
2017-Sep-15 18:29S 32°54' E 151°46'0 0.0
2017-Sep-15 18:00S 32°54' E 151°46'0 0.0
2017-Sep-15 17:29S 32°54' E 151°46'0 0.0
2017-Sep-15 17:00S 32°54' E 151°46'0 0.0
2017-Sep-15 16:29S 32°54' E 151°46'0 0.0
2017-Sep-15 15:59S 32°54' E 151°46'0 0.0
2017-Sep-15 15:30S 32°54' E 151°46'0 0.0
2017-Sep-15 15:00S 32°54' E 151°46'0 0.0
2017-Sep-15 14:30S 32°54' E 151°46'0 0.0
2017-Sep-15 14:00S 32°54' E 151°46'0 0.0
2017-Sep-15 13:30S 32°54' E 151°46'0 0.0
2017-Sep-15 13:00S 32°54' E 151°46'0 0.0
2017-Sep-15 12:30S 32°54' E 151°46'0 0.0
2017-Sep-15 12:00S 32°54' E 151°46'0 0.0
2017-Sep-15 11:30S 32°54' E 151°46'0 0.0
2017-Sep-15 11:00S 32°54' E 151°46'0 0.0
2017-Sep-15 10:30S 32°54' E 151°46'0 0.0
2017-Sep-15 10:00S 32°54' E 151°46'0 0.0
2017-Sep-15 09:30S 32°54' E 151°46'0 0.0
2017-Sep-15 09:00S 32°54' E 151°46'0 0.0
2017-Sep-15 08:30S 32°54' E 151°46'0 0.0
2017-Sep-15 07:59S 32°54' E 151°46'0 0.8
2017-Sep-15 07:28S 32°54' E 151°46'1 2.7
2017-Sep-15 07:00S 32°55' E 151°48'1 1.0
2017-Sep-15 06:30S 32°55' E 151°47'1 1.4
2017-Sep-15 06:00S 32°55' E 151°47'2 4.2
2017-Sep-15 05:30S 32°55' E 151°49'2 3.6
2017-Sep-15 04:56S 32°55' E 151°47'2 5.2
2017-Sep-15 04:29S 32°56' E 151°49'2 4.9
2017-Sep-15 04:00S 32°55' E 151°47'0 1.0
2017-Sep-15 03:31S 32°55' E 151°47'1 2.4
2017-Sep-15 03:01S 32°55' E 151°48'2 3.2
2017-Sep-15 02:30S 32°55' E 151°46'0 0.6
2017-Sep-15 01:55S 32°54' E 151°46'1 1.8
2017-Sep-15 01:21S 32°55' E 151°47'0 1.0
2017-Sep-15 00:56S 32°55' E 151°46'0 0.2
2017-Sep-15 00:26S 32°55' E 151°46'0 0.4
2017-Sep-14 23:50S 32°55' E 151°46'0 0.0
2017-Sep-14 23:29S 32°55' E 151°46'0 0.1
2017-Sep-14 22:59S 32°55' E 151°46'0 0.6
2017-Sep-14 22:30S 32°55' E 151°46'0 0.3
2017-Sep-14 22:00S 32°55' E 151°46'0 0.1
2017-Sep-14 21:30S 32°55' E 151°46'0 0.0
2017-Sep-14 21:00S 32°55' E 151°46'1 2.0
2017-Sep-14 20:30S 32°54' E 151°46'0 0.5
2017-Sep-14 20:00S 32°54' E 151°46'0 0.0
2017-Sep-14 19:30S 32°54' E 151°46'0 0.0
2017-Sep-14 19:00S 32°54' E 151°46'0 0.0
2017-Sep-14 18:30S 32°54' E 151°46'0 0.0
2017-Sep-14 17:57S 32°54' E 151°46'0 0.0
2017-Sep-14 17:24S 32°54' E 151°46'0 0.0
2017-Sep-14 17:00S 32°54' E 151°46'0 0.0
2017-Sep-14 16:30S 32°54' E 151°46'0 0.0
2017-Sep-14 16:00S 32°54' E 151°46'0 0.0
2017-Sep-14 15:30S 32°54' E 151°46'0 0.0
2017-Sep-14 15:00S 32°54' E 151°46'0 0.0
2017-Sep-14 14:30S 32°54' E 151°46'0 0.0
2017-Sep-14 14:00S 32°54' E 151°46'0 0.0
2017-Sep-14 13:30S 32°54' E 151°46'0 0.0
2017-Sep-14 13:00S 32°54' E 151°46'0 0.0
2017-Sep-14 12:30S 32°54' E 151°46'0 0.0
2017-Sep-14 12:00S 32°54' E 151°46'0 0.0
2017-Sep-14 11:30S 32°54' E 151°46'0 0.0
2017-Sep-14 11:00S 32°54' E 151°46'0 0.0
2017-Sep-14 10:30S 32°54' E 151°46'0 0.0
2017-Sep-14 10:00S 32°54' E 151°46'0 0.0
2017-Sep-14 09:30S 32°54' E 151°46'0 0.0
2017-Sep-14 09:00S 32°54' E 151°46'0 0.0
2017-Sep-14 08:30S 32°54' E 151°46'0 0.0
2017-Sep-14 08:00S 32°54' E 151°46'1 1.6
2017-Sep-14 07:30S 32°55' E 151°46'1 1.0
2017-Sep-14 06:59S 32°55' E 151°46'0 0.1
2017-Sep-14 06:28S 32°55' E 151°46'0 0.0
2017-Sep-14 05:58S 32°55' E 151°46'0 0.0
2017-Sep-14 05:28S 32°55' E 151°46'0 0.0
2017-Sep-14 04:58S 32°55' E 151°46'0 0.9
2017-Sep-14 04:27S 32°55' E 151°47'2 4.1
2017-Sep-14 04:00S 32°55' E 151°49'2 2.4
2017-Sep-14 03:23S 32°55' E 151°47'2 5.0
2017-Sep-14 03:00S 32°56' E 151°49'2 3.7
2017-Sep-14 02:30S 32°55' E 151°47'0 0.6
2017-Sep-14 02:00S 32°55' E 151°47'1 1.1
2017-Sep-14 01:26S 32°55' E 151°46'0 0.0
2017-Sep-14 00:56S 32°55' E 151°46'0 0.0
2017-Sep-14 00:29S 32°55' E 151°46'0 0.0
2017-Sep-13 23:56S 32°55' E 151°46'0 0.0
2017-Sep-13 23:23S 32°55' E 151°46'0 0.0
2017-Sep-13 22:59S 32°55' E 151°46'0 0.3
2017-Sep-13 22:29S 32°55' E 151°46'0 0.0
2017-Sep-13 21:59S 32°55' E 151°46'0 0.2
2017-Sep-13 21:30S 32°55' E 151°46'0 0.0
2017-Sep-13 21:00S 32°55' E 151°46'1 2.6
2017-Sep-13 20:30S 32°54' E 151°46'0 0.2
2017-Sep-13 20:00S 32°54' E 151°46'0 0.0
2017-Sep-13 19:30S 32°54' E 151°46'0 0.0
2017-Sep-13 18:59S 32°54' E 151°46'0 0.0
2017-Sep-13 18:29S 32°54' E 151°46'0 0.0
2017-Sep-13 17:59S 32°54' E 151°46'0 0.0
2017-Sep-13 17:30S 32°54' E 151°46'0 0.0
2017-Sep-13 16:59S 32°54' E 151°46'0 0.0
2017-Sep-13 16:30S 32°54' E 151°46'0 0.0
2017-Sep-13 16:00S 32°54' E 151°46'0 0.0
2017-Sep-13 15:29S 32°54' E 151°46'0 0.0
2017-Sep-13 15:00S 32°54' E 151°46'0 0.0
2017-Sep-13 14:30S 32°54' E 151°46'0 0.0
2017-Sep-13 14:00S 32°54' E 151°46'0 0.0
2017-Sep-13 13:29S 32°54' E 151°46'0 0.0
2017-Sep-13 13:00S 32°54' E 151°46'0 0.0
2017-Sep-13 12:30S 32°54' E 151°46'0 0.0
2017-Sep-13 12:00S 32°54' E 151°46'0 0.0
2017-Sep-13 11:30S 32°54' E 151°46'0 0.0
2017-Sep-13 10:54S 32°54' E 151°46'0 0.0
2017-Sep-13 10:30S 32°54' E 151°46'0 0.0
2017-Sep-13 10:00S 32°54' E 151°46'0 0.0
2017-Sep-13 09:30S 32°54' E 151°46'0 0.0
2017-Sep-13 08:59S 32°54' E 151°46'0 0.0
2017-Sep-13 08:30S 32°54' E 151°46'0 0.0
2017-Sep-13 08:00S 32°54' E 151°46'0 0.5
2017-Sep-13 07:30S 32°54' E 151°46'3 5.9
2017-Sep-13 07:00S 32°56' E 151°49'2 3.2
2017-Sep-13 06:28S 32°55' E 151°47'2 3.6
2017-Sep-13 06:00S 32°56' E 151°49'2 3.3
2017-Sep-13 05:30S 32°55' E 151°47'2 3.4
2017-Sep-13 05:00S 32°56' E 151°49'2 3.2
2017-Sep-13 04:29S 32°55' E 151°47'2 3.8
2017-Sep-13 04:01S 32°56' E 151°49'2 3.3
2017-Sep-13 03:27S 32°55' E 151°47'0 0.4
2017-Sep-13 03:00S 32°55' E 151°47'1 2.6
2017-Sep-13 02:31S 32°55' E 151°49'1 1.9
2017-Sep-13 01:55S 32°55' E 151°47'1 1.9
2017-Sep-13 01:30S 32°55' E 151°48'0 0.2
2017-Sep-13 01:00S 32°55' E 151°48'0 0.1
2017-Sep-13 00:30S 32°55' E 151°48'1 1.5
2017-Sep-13 00:01S 32°54' E 151°48'1 1.2
2017-Sep-12 23:25S 32°55' E 151°48'0 0.3
2017-Sep-12 22:58S 32°55' E 151°48'0 0.7
2017-Sep-12 22:30S 32°55' E 151°48'0 0.4
2017-Sep-12 21:58S 32°55' E 151°48'2 3.3
2017-Sep-12 21:30S 32°56' E 151°49'2 4.6
2017-Sep-12 21:00S 32°55' E 151°47'1 2.1
2017-Sep-12 20:30S 32°54' E 151°46'0 0.1
2017-Sep-12 20:00S 32°54' E 151°46'0 0.0
2017-Sep-12 19:30S 32°54' E 151°46'0 0.0
2017-Sep-12 19:00S 32°54' E 151°46'0 0.0
2017-Sep-12 18:30S 32°54' E 151°46'0 0.0
2017-Sep-12 18:00S 32°54' E 151°46'0 0.0
2017-Sep-12 17:30S 32°54' E 151°46'0 0.0
2017-Sep-12 17:00S 32°54' E 151°46'0 0.0
2017-Sep-12 16:30S 32°54' E 151°46'0 0.0
2017-Sep-12 16:00S 32°54' E 151°46'0 0.0
2017-Sep-12 15:30S 32°54' E 151°46'0 0.0
2017-Sep-12 15:00S 32°54' E 151°46'0 0.0
2017-Sep-12 14:30S 32°54' E 151°46'0 0.0
2017-Sep-12 14:00S 32°54' E 151°46'0 0.0
2017-Sep-12 13:30S 32°54' E 151°46'0 0.0
2017-Sep-12 13:00S 32°54' E 151°46'0 0.0
2017-Sep-12 12:30S 32°54' E 151°46'0 0.0
2017-Sep-12 12:00S 32°54' E 151°46'0 0.0
2017-Sep-12 11:30S 32°54' E 151°46'0 0.0
2017-Sep-12 11:00S 32°54' E 151°46'0 0.0
2017-Sep-12 10:30S 32°54' E 151°46'0 0.0
2017-Sep-12 10:00S 32°54' E 151°46'0 0.0
2017-Sep-12 09:30S 32°54' E 151°46'0 0.0
2017-Sep-12 09:00S 32°54' E 151°46'0 0.0
2017-Sep-12 08:30S 32°54' E 151°46'0 0.0
2017-Sep-12 08:00S 32°54' E 151°46'0 0.0
2017-Sep-12 07:30S 32°54' E 151°46'2 3.5
2017-Sep-12 07:00S 32°55' E 151°48'0 0.4
2017-Sep-12 06:30S 32°55' E 151°48'2 3.2
2017-Sep-12 05:51S 32°53' E 151°46'1 3.9
2017-Sep-12 05:30S 32°55' E 151°46'3 6.0
2017-Sep-12 05:00S 32°56' E 151°50'3 6.8
2017-Sep-12 04:30S 32°54' E 151°46'1 1.3
2017-Sep-12 03:58S 32°53' E 151°46'2 4.8
2017-Sep-12 03:29S 32°55' E 151°48'0 0.6
2017-Sep-12 03:01S 32°55' E 151°48'2 3.7
2017-Sep-12 02:28S 32°53' E 151°46'1 2.3
2017-Sep-12 02:00S 32°54' E 151°46'3 6.1
2017-Sep-12 01:31S 32°56' E 151°49'3 6.7
2017-Sep-12 01:01S 32°54' E 151°46'0 0.2
2017-Sep-12 00:01S 32°54' E 151°46'0 9.6
2017-Sep-12 00:00S 32°54' E 151°46'2 4.9
2017-Sep-11 23:30S 32°55' E 151°49'1 3.0
2017-Sep-11 23:01S 32°55' E 151°47'2 3.7
2017-Sep-11 22:29S 32°53' E 151°46'2 4.1
2017-Sep-11 22:00S 32°55' E 151°48'1 1.1
2017-Sep-11 21:30S 32°55' E 151°47'2 3.1
2017-Sep-11 20:53S 32°53' E 151°46'1 1.6
2017-Sep-11 20:28S 32°54' E 151°46'0 0.0
2017-Sep-11 19:58S 32°54' E 151°46'0 0.0
2017-Sep-11 19:28S 32°54' E 151°46'0 0.0
2017-Sep-11 18:58S 32°54' E 151°46'0 0.0
2017-Sep-11 18:28S 32°54' E 151°46'0 0.0
2017-Sep-11 17:58S 32°54' E 151°46'0 0.0
2017-Sep-11 17:28S 32°54' E 151°46'0 0.0
2017-Sep-11 16:58S 32°54' E 151°46'0 0.0
2017-Sep-11 16:28S 32°54' E 151°46'0 0.0
2017-Sep-11 15:58S 32°54' E 151°46'0 0.0
2017-Sep-11 15:28S 32°54' E 151°46'0 0.0
2017-Sep-11 14:58S 32°54' E 151°46'0 0.0
2017-Sep-11 14:28S 32°54' E 151°46'0 0.0
2017-Sep-11 13:58S 32°54' E 151°46'0 0.0
2017-Sep-11 13:25S 32°54' E 151°46'0 0.0
2017-Sep-11 12:58S 32°54' E 151°46'0 0.0
2017-Sep-11 12:28S 32°54' E 151°46'0 0.0
2017-Sep-11 11:58S 32°54' E 151°46'0 0.0
2017-Sep-11 11:28S 32°54' E 151°46'0 0.0
2017-Sep-11 10:58S 32°54' E 151°46'0 0.0
2017-Sep-11 10:28S 32°54' E 151°46'0 0.0
2017-Sep-11 09:58S 32°54' E 151°46'0 0.0
2017-Sep-11 09:28S 32°54' E 151°46'0 0.0
2017-Sep-11 08:58S 32°54' E 151°46'0 0.0
2017-Sep-11 08:28S 32°54' E 151°46'0 0.0
2017-Sep-11 07:58S 32°54' E 151°46'1 2.0
2017-Sep-11 07:30S 32°55' E 151°46'2 3.6
2017-Sep-11 07:00S 32°55' E 151°49'3 3.9
2017-Sep-11 06:22S 32°53' E 151°46'1 1.9
2017-Sep-11 06:00S 32°54' E 151°46'3 6.9
2017-Sep-11 05:30S 32°56' E 151°50'3 6.7
2017-Sep-11 05:00S 32°54' E 151°46'1 1.1
2017-Sep-11 04:29S 32°54' E 151°46'2 3.7
2017-Sep-11 04:00S 32°55' E 151°48'1 2.0
2017-Sep-11 03:30S 32°55' E 151°49'3 5.6
2017-Sep-11 02:59S 32°53' E 151°46'1 1.2
2017-Sep-11 02:28S 32°54' E 151°46'0 1.0
2017-Sep-11 02:00S 32°54' E 151°46'3 5.4
2017-Sep-11 01:30S 32°56' E 151°49'2 4.6
2017-Sep-11 01:00S 32°55' E 151°47'1 1.3
2017-Sep-11 00:23S 32°54' E 151°46'2 6.0
2017-Sep-11 00:00S 32°55' E 151°49'1 2.4
2017-Sep-10 23:30S 32°55' E 151°47'1 2.1
2017-Sep-10 23:00S 32°55' E 151°46'3 6.3
2017-Sep-10 22:30S 32°56' E 151°50'3 5.9
2017-Sep-10 22:00S 32°55' E 151°46'0 0.2
2017-Sep-10 21:30S 32°55' E 151°46'3 5.5
2017-Sep-10 21:00S 32°56' E 151°49'3 5.9
2017-Sep-10 20:30S 32°55' E 151°46'1 1.1
2017-Sep-10 19:58S 32°54' E 151°46'0 0.0
2017-Sep-10 19:28S 32°54' E 151°46'0 0.0
2017-Sep-10 18:58S 32°54' E 151°46'0 0.0
2017-Sep-10 18:28S 32°54' E 151°46'0 0.0
2017-Sep-10 17:58S 32°54' E 151°46'0 0.0
2017-Sep-10 17:28S 32°54' E 151°46'0 0.0
2017-Sep-10 16:58S 32°54' E 151°46'0 0.0
2017-Sep-10 16:28S 32°54' E 151°46'0 0.0
2017-Sep-10 15:58S 32°54' E 151°46'0 0.0
2017-Sep-10 15:28S 32°54' E 151°46'0 0.0
2017-Sep-10 14:58S 32°54' E 151°46'0 0.0
2017-Sep-10 13:58S 32°54' E 151°46'0 0.0
2017-Sep-10 13:28S 32°54' E 151°46'0 0.0
2017-Sep-10 12:58S 32°54' E 151°46'0 0.0
2017-Sep-10 12:28S 32°54' E 151°46'0 0.0
2017-Sep-10 11:58S 32°54' E 151°46'0 0.0
2017-Sep-10 11:28S 32°54' E 151°46'0 0.0
2017-Sep-10 10:58S 32°54' E 151°46'0 0.0
2017-Sep-10 10:28S 32°54' E 151°46'0 0.0
2017-Sep-10 09:58S 32°54' E 151°46'0 0.0
2017-Sep-10 09:28S 32°54' E 151°46'0 0.0
2017-Sep-10 08:58S 32°54' E 151°46'0 0.0
2017-Sep-10 08:28S 32°54' E 151°46'0 0.0
2017-Sep-10 07:58S 32°54' E 151°46'0 0.0
2017-Sep-10 07:28S 32°54' E 151°46'0 0.1
2017-Sep-10 06:56S 32°54' E 151°46'2 5.1
2017-Sep-10 06:29S 32°55' E 151°49'0 0.3
2017-Sep-10 06:00S 32°55' E 151°49'2 4.6
2017-Sep-10 05:30S 32°54' E 151°46'1 2.8
2017-Sep-10 05:00S 32°55' E 151°47'2 3.4
2017-Sep-10 04:30S 32°55' E 151°49'3 4.4
2017-Sep-10 03:53S 32°54' E 151°46'2 4.5
2017-Sep-10 03:30S 32°55' E 151°48'1 1.1
2017-Sep-10 03:01S 32°55' E 151°49'2 4.1
2017-Sep-10 02:30S 32°54' E 151°46'0 0.0
2017-Sep-10 01:58S 32°54' E 151°46'3 7.0
2017-Sep-10 01:30S 32°56' E 151°49'3 5.7
2017-Sep-10 01:00S 32°55' E 151°46'1 1.2
2017-Sep-10 00:29S 32°54' E 151°46'3 6.9
2017-Sep-10 00:00S 32°56' E 151°50'3 6.3
2017-Sep-09 23:30S 32°55' E 151°46'0 0.4
2017-Sep-09 23:00S 32°54' E 151°46'3 6.5
2017-Sep-09 22:30S 32°56' E 151°49'3 6.4
2017-Sep-09 22:00S 32°54' E 151°46'0 0.7
2017-Sep-09 21:30S 32°54' E 151°46'0 0.0
2017-Sep-09 21:00S 32°54' E 151°46'0 0.0
2017-Sep-09 20:30S 32°54' E 151°46'0 0.0
2017-Sep-09 20:00S 32°54' E 151°46'0 0.0
2017-Sep-09 19:30S 32°54' E 151°46'0 0.0
2017-Sep-09 19:00S 32°54' E 151°46'0 0.0
2017-Sep-09 18:30S 32°54' E 151°46'0 0.0
2017-Sep-09 18:00S 32°54' E 151°46'0 0.0
2017-Sep-09 17:30S 32°54' E 151°46'0 0.0
2017-Sep-09 17:00S 32°54' E 151°46'  
Track history (hours):
 
Tides and Currents Weather Stations Pressure Air Temp Water Temp Dewpoint Dewpoint Depression Visibility Wind Speed Wind Dir Waves Ship Positions

David Allan

Last reported at 2017-Sep-19 16:59 UTC. Time now 2017-Sep-19 17:18 UTC.
Position S 32°55' E 151°46'.

Length 70 m.

Type: Dredging. MMSI: 503541000.

Date/timePositionNaut miles runAvg speedWind from/ knotsBaromVisibWave heightAir tempDewpointWater temp
2017-Sep-19 16:59S 32°55' E 151°46'0 0.0
2017-Sep-19 16:29S 32°55' E 151°46'0 0.0
2017-Sep-19 15:59S 32°55' E 151°46'0 0.0
2017-Sep-19 15:29S 32°55' E 151°46'0 0.0
2017-Sep-19 14:59S 32°55' E 151°46'0 0.0
2017-Sep-19 14:29S 32°55' E 151°46'0 0.0
2017-Sep-19 13:59S 32°55' E 151°46'0 0.0
2017-Sep-19 13:29S 32°55' E 151°46'0 0.0
2017-Sep-19 12:59S 32°55' E 151°46'0 0.0
2017-Sep-19 12:29S 32°55' E 151°46'0 0.0
2017-Sep-19 11:59S 32°55' E 151°46'0 0.0
2017-Sep-19 11:29S 32°55' E 151°46'0 0.0
2017-Sep-19 10:59S 32°55' E 151°46'0 0.0
2017-Sep-19 10:29S 32°55' E 151°46'0 0.0
2017-Sep-19 09:59S 32°55' E 151°46'0 0.0
2017-Sep-19 09:29S 32°55' E 151°46'0 0.0
2017-Sep-19 08:59S 32°55' E 151°46'0 0.0
2017-Sep-19 08:29S 32°55' E 151°46'0 0.0
2017-Sep-19 07:59S 32°55' E 151°46'0 0.0
2017-Sep-19 07:29S 32°55' E 151°46'0 0.0
2017-Sep-19 06:59S 32°55' E 151°46'0 0.0
2017-Sep-19 06:29S 32°55' E 151°46'0 0.0
2017-Sep-19 05:59S 32°55' E 151°46'0 0.0
2017-Sep-19 05:29S 32°55' E 151°46'0 0.0
2017-Sep-19 04:59S 32°55' E 151°46'0 0.0
2017-Sep-19 04:29S 32°55' E 151°46'0 0.0
2017-Sep-19 03:59S 32°55' E 151°46'0 0.0
2017-Sep-19 03:26S 32°55' E 151°46'0 0.0
2017-Sep-19 02:59S 32°55' E 151°46'2 4.8
2017-Sep-19 02:30S 32°56' E 151°49'1 2.3
2017-Sep-19 02:01S 32°55' E 151°48'1 1.1
2017-Sep-19 01:30S 32°55' E 151°48'0 0.0
2017-Sep-19 01:00S 32°55' E 151°48'0 0.0
2017-Sep-19 00:30S 32°55' E 151°48'0 0.1
2017-Sep-19 00:00S 32°55' E 151°48'1 1.6
2017-Sep-18 23:30S 32°54' E 151°48'1 1.3
2017-Sep-18 22:57S 32°55' E 151°48'0 0.1
2017-Sep-18 22:30S 32°55' E 151°48'0 0.9
2017-Sep-18 22:00S 32°55' E 151°49'1 1.4
2017-Sep-18 21:31S 32°55' E 151°48'1 2.5
2017-Sep-18 20:59S 32°55' E 151°46'1 1.4
2017-Sep-18 20:30S 32°54' E 151°46'0 0.0
2017-Sep-18 20:00S 32°54' E 151°46'0 0.0
2017-Sep-18 19:30S 32°54' E 151°46'0 0.0
2017-Sep-18 19:00S 32°54' E 151°46'0 0.0
2017-Sep-18 18:30S 32°54' E 151°46'0 0.0
2017-Sep-18 18:00S 32°54' E 151°46'0 0.0
2017-Sep-18 17:30S 32°54' E 151°46'0 0.0
2017-Sep-18 17:00S 32°54' E 151°46'0 0.0
2017-Sep-18 16:30S 32°54' E 151°46'0 0.0
2017-Sep-18 16:00S 32°54' E 151°46'0 0.0
2017-Sep-18 15:30S 32°54' E 151°46'0 0.0
2017-Sep-18 15:00S 32°54' E 151°46'0 0.0
2017-Sep-18 14:30S 32°54' E 151°46'0 0.0
2017-Sep-18 14:00S 32°54' E 151°46'0 0.0
2017-Sep-18 13:30S 32°54' E 151°46'0 0.0
2017-Sep-18 13:00S 32°54' E 151°46'0 0.0
2017-Sep-18 12:30S 32°54' E 151°46'0 0.0
2017-Sep-18 12:00S 32°54' E 151°46'0 0.0
2017-Sep-18 11:30S 32°54' E 151°46'0 0.0
2017-Sep-18 11:00S 32°54' E 151°46'0 0.0
2017-Sep-18 10:30S 32°54' E 151°46'0 0.0
2017-Sep-18 10:00S 32°54' E 151°46'0 0.0
2017-Sep-18 09:30S 32°54' E 151°46'0 0.0
2017-Sep-18 09:00S 32°54' E 151°46'0 0.0
2017-Sep-18 08:30S 32°54' E 151°46'0 0.0
2017-Sep-18 08:00S 32°54' E 151°46'0 0.0
2017-Sep-18 07:30S 32°54' E 151°46'3 5.6
2017-Sep-18 07:00S 32°56' E 151°49'2 4.1
2017-Sep-18 06:30S 32°55' E 151°47'1 2.8
2017-Sep-18 06:00S 32°55' E 151°48'0 0.1
2017-Sep-18 05:30S 32°55' E 151°48'2 3.4
2017-Sep-18 04:55S 32°54' E 151°46'2 4.2
2017-Sep-18 04:30S 32°55' E 151°48'0 0.2
2017-Sep-18 04:00S 32°55' E 151°48'2 3.1
2017-Sep-18 03:28S 32°54' E 151°46'1 3.2
2017-Sep-18 03:00S 32°55' E 151°47'2 3.8
2017-Sep-18 02:31S 32°56' E 151°49'3 5.3
2017-Sep-18 02:00S 32°54' E 151°46'2 3.4
2017-Sep-18 01:30S 32°55' E 151°47'1 2.1
2017-Sep-18 01:00S 32°55' E 151°48'2 2.4
2017-Sep-18 00:13S 32°54' E 151°46'1 6.4
2017-Sep-18 00:00S 32°55' E 151°47'1 2.9
2017-Sep-17 23:30S 32°55' E 151°49'2 3.0
2017-Sep-17 22:55S 32°55' E 151°47'2 4.8
2017-Sep-17 22:30S 32°56' E 151°49'2 3.9
2017-Sep-17 22:00S 32°55' E 151°47'1 1.4
2017-Sep-17 21:31S 32°55' E 151°47'1 1.8
2017-Sep-17 21:01S 32°55' E 151°48'2 3.2
2017-Sep-17 20:26S 32°54' E 151°46'0 0.1
2017-Sep-17 19:59S 32°54' E 151°46'0 0.0
2017-Sep-17 19:29S 32°54' E 151°46'0 0.0
2017-Sep-17 18:59S 32°54' E 151°46'0 0.0
2017-Sep-17 18:29S 32°54' E 151°46'0 0.0
2017-Sep-17 17:59S 32°54' E 151°46'0 0.0
2017-Sep-17 17:29S 32°54' E 151°46'0 0.0
2017-Sep-17 16:59S 32°54' E 151°46'0 0.0
2017-Sep-17 16:29S 32°54' E 151°46'0 0.0
2017-Sep-17 15:59S 32°54' E 151°46'0 0.0
2017-Sep-17 15:29S 32°54' E 151°46'0 0.0
2017-Sep-17 14:59S 32°54' E 151°46'0 0.0
2017-Sep-17 14:29S 32°54' E 151°46'0 0.0
2017-Sep-17 13:59S 32°54' E 151°46'0 0.0
2017-Sep-17 13:29S 32°54' E 151°46'0 0.0
2017-Sep-17 12:59S 32°54' E 151°46'0 0.0
2017-Sep-17 12:29S 32°54' E 151°46'0 0.0
2017-Sep-17 11:59S 32°54' E 151°46'0 0.0
2017-Sep-17 11:29S 32°54' E 151°46'0 0.0
2017-Sep-17 10:59S 32°54' E 151°46'0 0.0
2017-Sep-17 10:29S 32°54' E 151°46'0 0.0
2017-Sep-17 09:59S 32°54' E 151°46'0 0.0
2017-Sep-17 09:29S 32°54' E 151°46'0 0.0
2017-Sep-17 08:59S 32°54' E 151°46'0 0.0
2017-Sep-17 08:29S 32°54' E 151°46'0 0.0
2017-Sep-17 07:59S 32°54' E 151°46'0 0.0
2017-Sep-17 07:29S 32°54' E 151°46'0 0.3
2017-Sep-17 06:59S 32°54' E 151°46'1 2.9
2017-Sep-17 06:30S 32°55' E 151°47'1 2.0
2017-Sep-17 06:00S 32°55' E 151°48'2 3.7
2017-Sep-17 05:28S 32°54' E 151°46'1 2.1
2017-Sep-17 05:00S 32°55' E 151°47'2 3.2
2017-Sep-17 04:30S 32°55' E 151°48'2 3.6
2017-Sep-17 03:57S 32°54' E 151°46'2 3.6
2017-Sep-17 03:30S 32°55' E 151°48'1 1.3
2017-Sep-17 03:00S 32°55' E 151°47'1 2.8
2017-Sep-17 02:30S 32°54' E 151°46'3 6.5
2017-Sep-17 02:00S 32°56' E 151°49'2 3.7
2017-Sep-17 01:28S 32°55' E 151°47'1 2.9
2017-Sep-17 00:57S 32°54' E 151°46'1 3.0
2017-Sep-17 00:30S 32°55' E 151°47'1 1.9
2017-Sep-17 00:00S 32°55' E 151°48'2 3.3
2017-Sep-16 23:29S 32°54' E 151°46'1 2.1
2017-Sep-16 23:00S 32°55' E 151°47'2 4.9
2017-Sep-16 22:30S 32°56' E 151°49'3 5.6
2017-Sep-16 21:58S 32°54' E 151°46'1 2.7
2017-Sep-16 21:30S 32°55' E 151°47'2 4.4
2017-Sep-16 21:00S 32°56' E 151°49'3 6.1
2017-Sep-16 20:30S 32°54' E 151°46'0 0.9
2017-Sep-16 20:00S 32°54' E 151°46'0 0.0
2017-Sep-16 19:30S 32°54' E 151°46'0 0.0
2017-Sep-16 19:00S 32°54' E 151°46'0 0.0
2017-Sep-16 18:30S 32°54' E 151°46'0 0.0
2017-Sep-16 18:00S 32°54' E 151°46'0 0.0
2017-Sep-16 17:30S 32°54' E 151°46'0 0.0
2017-Sep-16 17:00S 32°54' E 151°46'0 0.0
2017-Sep-16 16:30S 32°54' E 151°46'0 0.0
2017-Sep-16 16:00S 32°54' E 151°46'0 0.0
2017-Sep-16 15:30S 32°54' E 151°46'0 0.0
2017-Sep-16 15:00S 32°54' E 151°46'0 0.0
2017-Sep-16 14:30S 32°54' E 151°46'0 0.0
2017-Sep-16 14:00S 32°54' E 151°46'0 0.0
2017-Sep-16 13:30S 32°54' E 151°46'0 0.0
2017-Sep-16 13:00S 32°54' E 151°46'0 0.0
2017-Sep-16 12:30S 32°54' E 151°46'0 0.0
2017-Sep-16 12:00S 32°54' E 151°46'0 0.0
2017-Sep-16 11:30S 32°54' E 151°46'0 0.0
2017-Sep-16 11:00S 32°54' E 151°46'0 0.0
2017-Sep-16 10:30S 32°54' E 151°46'0 0.0
2017-Sep-16 10:00S 32°54' E 151°46'0 0.0
2017-Sep-16 09:30S 32°54' E 151°46'0 0.0
2017-Sep-16 09:00S 32°54' E 151°46'0 0.0
2017-Sep-16 08:30S 32°54' E 151°46'0 0.0
2017-Sep-16 08:00S 32°54' E 151°46'0 0.0
2017-Sep-16 07:30S 32°54' E 151°46'1 1.4
2017-Sep-16 07:00S 32°55' E 151°46'1 1.2
2017-Sep-16 06:30S 32°55' E 151°47'2 3.5
2017-Sep-16 06:00S 32°55' E 151°49'2 3.7
2017-Sep-16 05:28S 32°55' E 151°46'2 5.0
2017-Sep-16 05:01S 32°55' E 151°49'2 4.1
2017-Sep-16 04:31S 32°55' E 151°47'0 0.1
2017-Sep-16 04:00S 32°55' E 151°46'2 3.5
2017-Sep-16 03:30S 32°55' E 151°49'2 3.4
2017-Sep-16 02:57S 32°55' E 151°46'2 3.8
2017-Sep-16 02:30S 32°55' E 151°48'1 2.4
2017-Sep-16 02:00S 32°55' E 151°47'1 1.8
2017-Sep-16 01:30S 32°55' E 151°46'3 5.8
2017-Sep-16 01:01S 32°56' E 151°49'3 5.5
2017-Sep-16 00:30S 32°55' E 151°46'1 1.8
2017-Sep-16 00:00S 32°55' E 151°47'1 2.7
2017-Sep-15 23:30S 32°55' E 151°49'1 2.7
2017-Sep-15 23:00S 32°55' E 151°47'1 1.8
2017-Sep-15 22:30S 32°55' E 151°46'2 5.1
2017-Sep-15 22:00S 32°56' E 151°49'2 4.6
2017-Sep-15 21:30S 32°55' E 151°47'2 4.7
2017-Sep-15 21:00S 32°56' E 151°49'3 5.4
2017-Sep-15 20:31S 32°54' E 151°46'0 0.6
2017-Sep-15 20:00S 32°54' E 151°46'0 0.0
2017-Sep-15 19:30S 32°54' E 151°46'0 0.0
2017-Sep-15 18:59S 32°54' E 151°46'0 0.0
2017-Sep-15 18:29S 32°54' E 151°46'0 0.0
2017-Sep-15 18:00S 32°54' E 151°46'0 0.0
2017-Sep-15 17:29S 32°54' E 151°46'0 0.0
2017-Sep-15 17:00S 32°54' E 151°46'0 0.0
2017-Sep-15 16:29S 32°54' E 151°46'0 0.0
2017-Sep-15 15:59S 32°54' E 151°46'0 0.0
2017-Sep-15 15:30S 32°54' E 151°46'0 0.0
2017-Sep-15 15:00S 32°54' E 151°46'0 0.0
2017-Sep-15 14:30S 32°54' E 151°46'0 0.0
2017-Sep-15 14:00S 32°54' E 151°46'0 0.0
2017-Sep-15 13:30S 32°54' E 151°46'0 0.0
2017-Sep-15 13:00S 32°54' E 151°46'0 0.0
2017-Sep-15 12:30S 32°54' E 151°46'0 0.0
2017-Sep-15 12:00S 32°54' E 151°46'0 0.0
2017-Sep-15 11:30S 32°54' E 151°46'0 0.0
2017-Sep-15 11:00S 32°54' E 151°46'0 0.0
2017-Sep-15 10:30S 32°54' E 151°46'0 0.0
2017-Sep-15 10:00S 32°54' E 151°46'0 0.0
2017-Sep-15 09:30S 32°54' E 151°46'0 0.0
2017-Sep-15 09:00S 32°54' E 151°46'0 0.0
2017-Sep-15 08:30S 32°54' E 151°46'0 0.0
2017-Sep-15 07:59S 32°54' E 151°46'0 0.8
2017-Sep-15 07:28S 32°54' E 151°46'1 2.7
2017-Sep-15 07:00S 32°55' E 151°48'1 1.0
2017-Sep-15 06:30S 32°55' E 151°47'1 1.4
2017-Sep-15 06:00S 32°55' E 151°47'2 4.2
2017-Sep-15 05:30S 32°55' E 151°49'2 3.6
2017-Sep-15 04:56S 32°55' E 151°47'2 5.2
2017-Sep-15 04:29S 32°56' E 151°49'2 4.9
2017-Sep-15 04:00S 32°55' E 151°47'0 1.0
2017-Sep-15 03:31S 32°55' E 151°47'1 2.4
2017-Sep-15 03:01S 32°55' E 151°48'2 3.2
2017-Sep-15 02:30S 32°55' E 151°46'0 0.6
2017-Sep-15 01:55S 32°54' E 151°46'1 1.8
2017-Sep-15 01:21S 32°55' E 151°47'0 1.0
2017-Sep-15 00:56S 32°55' E 151°46'0 0.2
2017-Sep-15 00:26S 32°55' E 151°46'0 0.4
2017-Sep-14 23:50S 32°55' E 151°46'0 0.0
2017-Sep-14 23:29S 32°55' E 151°46'0 0.1
2017-Sep-14 22:59S 32°55' E 151°46'0 0.6
2017-Sep-14 22:30S 32°55' E 151°46'0 0.3
2017-Sep-14 22:00S 32°55' E 151°46'0 0.1
2017-Sep-14 21:30S 32°55' E 151°46'0 0.0
2017-Sep-14 21:00S 32°55' E 151°46'1 2.0
2017-Sep-14 20:30S 32°54' E 151°46'0 0.5
2017-Sep-14 20:00S 32°54' E 151°46'0 0.0
2017-Sep-14 19:30S 32°54' E 151°46'0 0.0
2017-Sep-14 19:00S 32°54' E 151°46'0 0.0
2017-Sep-14 18:30S 32°54' E 151°46'0 0.0
2017-Sep-14 17:57S 32°54' E 151°46'0 0.0
2017-Sep-14 17:24S 32°54' E 151°46'0 0.0
2017-Sep-14 17:00S 32°54' E 151°46'0 0.0
2017-Sep-14 16:30S 32°54' E 151°46'0 0.0
2017-Sep-14 16:00S 32°54' E 151°46'0 0.0
2017-Sep-14 15:30S 32°54' E 151°46'0 0.0
2017-Sep-14 15:00S 32°54' E 151°46'0 0.0
2017-Sep-14 14:30S 32°54' E 151°46'0 0.0
2017-Sep-14 14:00S 32°54' E 151°46'0 0.0
2017-Sep-14 13:30S 32°54' E 151°46'0 0.0
2017-Sep-14 13:00S 32°54' E 151°46'0 0.0
2017-Sep-14 12:30S 32°54' E 151°46'0 0.0
2017-Sep-14 12:00S 32°54' E 151°46'0 0.0
2017-Sep-14 11:30S 32°54' E 151°46'0 0.0
2017-Sep-14 11:00S 32°54' E 151°46'0 0.0
2017-Sep-14 10:30S 32°54' E 151°46'0 0.0
2017-Sep-14 10:00S 32°54' E 151°46'0 0.0
2017-Sep-14 09:30S 32°54' E 151°46'0 0.0
2017-Sep-14 09:00S 32°54' E 151°46'0 0.0
2017-Sep-14 08:30S 32°54' E 151°46'0 0.0
2017-Sep-14 08:00S 32°54' E 151°46'1 1.6
2017-Sep-14 07:30S 32°55' E 151°46'1 1.0
2017-Sep-14 06:59S 32°55' E 151°46'0 0.1
2017-Sep-14 06:28S 32°55' E 151°46'0 0.0
2017-Sep-14 05:58S 32°55' E 151°46'0 0.0
2017-Sep-14 05:28S 32°55' E 151°46'0 0.0
2017-Sep-14 04:58S 32°55' E 151°46'0 0.9
2017-Sep-14 04:27S 32°55' E 151°47'2 4.1
2017-Sep-14 04:00S 32°55' E 151°49'2 2.4
2017-Sep-14 03:23S 32°55' E 151°47'2 5.0
2017-Sep-14 03:00S 32°56' E 151°49'2 3.7
2017-Sep-14 02:30S 32°55' E 151°47'0 0.6
2017-Sep-14 02:00S 32°55' E 151°47'1 1.1
2017-Sep-14 01:26S 32°55' E 151°46'0 0.0
2017-Sep-14 00:56S 32°55' E 151°46'0 0.0
2017-Sep-14 00:29S 32°55' E 151°46'0 0.0
2017-Sep-13 23:56S 32°55' E 151°46'0 0.0
2017-Sep-13 23:23S 32°55' E 151°46'0 0.0
2017-Sep-13 22:59S 32°55' E 151°46'0 0.3
2017-Sep-13 22:29S 32°55' E 151°46'0 0.0
2017-Sep-13 21:59S 32°55' E 151°46'0 0.2
2017-Sep-13 21:30S 32°55' E 151°46'0 0.0
2017-Sep-13 21:00S 32°55' E 151°46'1 2.6
2017-Sep-13 20:30S 32°54' E 151°46'0 0.2
2017-Sep-13 20:00S 32°54' E 151°46'0 0.0
2017-Sep-13 19:30S 32°54' E 151°46'0 0.0
2017-Sep-13 18:59S 32°54' E 151°46'0 0.0
2017-Sep-13 18:29S 32°54' E 151°46'0 0.0
2017-Sep-13 17:59S 32°54' E 151°46'0 0.0
2017-Sep-13 17:30S 32°54' E 151°46'0 0.0
2017-Sep-13 16:59S 32°54' E 151°46'0 0.0
2017-Sep-13 16:30S 32°54' E 151°46'0 0.0
2017-Sep-13 16:00S 32°54' E 151°46'0 0.0
2017-Sep-13 15:29S 32°54' E 151°46'0 0.0
2017-Sep-13 15:00S 32°54' E 151°46'0 0.0
2017-Sep-13 14:30S 32°54' E 151°46'0 0.0
2017-Sep-13 14:00S 32°54' E 151°46'0 0.0
2017-Sep-13 13:29S 32°54' E 151°46'0 0.0
2017-Sep-13 13:00S 32°54' E 151°46'0 0.0
2017-Sep-13 12:30S 32°54' E 151°46'0 0.0
2017-Sep-13 12:00S 32°54' E 151°46'0 0.0
2017-Sep-13 11:30S 32°54' E 151°46'0 0.0
2017-Sep-13 10:54S 32°54' E 151°46'0 0.0
2017-Sep-13 10:30S 32°54' E 151°46'0 0.0
2017-Sep-13 10:00S 32°54' E 151°46'0 0.0
2017-Sep-13 09:30S 32°54' E 151°46'0 0.0
2017-Sep-13 08:59S 32°54' E 151°46'0 0.0
2017-Sep-13 08:30S 32°54' E 151°46'0 0.0
2017-Sep-13 08:00S 32°54' E 151°46'0 0.5
2017-Sep-13 07:30S 32°54' E 151°46'3 5.9
2017-Sep-13 07:00S 32°56' E 151°49'2 3.2
2017-Sep-13 06:28S 32°55' E 151°47'2 3.6
2017-Sep-13 06:00S 32°56' E 151°49'2 3.3
2017-Sep-13 05:30S 32°55' E 151°47'2 3.4
2017-Sep-13 05:00S 32°56' E 151°49'2 3.2
2017-Sep-13 04:29S 32°55' E 151°47'2 3.8
2017-Sep-13 04:01S 32°56' E 151°49'2 3.3
2017-Sep-13 03:27S 32°55' E 151°47'0 0.4
2017-Sep-13 03:00S 32°55' E 151°47'1 2.6
2017-Sep-13 02:31S 32°55' E 151°49'1 1.9
2017-Sep-13 01:55S 32°55' E 151°47'1 1.9
2017-Sep-13 01:30S 32°55' E 151°48'0 0.2
2017-Sep-13 01:00S 32°55' E 151°48'0 0.1
2017-Sep-13 00:30S 32°55' E 151°48'1 1.5
2017-Sep-13 00:01S 32°54' E 151°48'1 1.2
2017-Sep-12 23:25S 32°55' E 151°48'0 0.3
2017-Sep-12 22:58S 32°55' E 151°48'0 0.7
2017-Sep-12 22:30S 32°55' E 151°48'0 0.4
2017-Sep-12 21:58S 32°55' E 151°48'2 3.3
2017-Sep-12 21:30S 32°56' E 151°49'2 4.6
2017-Sep-12 21:00S 32°55' E 151°47'1 2.1
2017-Sep-12 20:30S 32°54' E 151°46'0 0.1
2017-Sep-12 20:00S 32°54' E 151°46'0 0.0
2017-Sep-12 19:30S 32°54' E 151°46'0 0.0
2017-Sep-12 19:00S 32°54' E 151°46'0 0.0
2017-Sep-12 18:30S 32°54' E 151°46'0 0.0
2017-Sep-12 18:00S 32°54' E 151°46'0 0.0
2017-Sep-12 17:30S 32°54' E 151°46'0 0.0
2017-Sep-12 17:00S 32°54' E 151°46'0 0.0
2017-Sep-12 16:30S 32°54' E 151°46'0 0.0
2017-Sep-12 16:00S 32°54' E 151°46'0 0.0
2017-Sep-12 15:30S 32°54' E 151°46'0 0.0
2017-Sep-12 15:00S 32°54' E 151°46'0 0.0
2017-Sep-12 14:30S 32°54' E 151°46'0 0.0
2017-Sep-12 14:00S 32°54' E 151°46'0 0.0
2017-Sep-12 13:30S 32°54' E 151°46'0 0.0
2017-Sep-12 13:00S 32°54' E 151°46'0 0.0
2017-Sep-12 12:30S 32°54' E 151°46'0 0.0
2017-Sep-12 12:00S 32°54' E 151°46'0 0.0
2017-Sep-12 11:30S 32°54' E 151°46'0 0.0
2017-Sep-12 11:00S 32°54' E 151°46'0 0.0
2017-Sep-12 10:30S 32°54' E 151°46'0 0.0
2017-Sep-12 10:00S 32°54' E 151°46'0 0.0
2017-Sep-12 09:30S 32°54' E 151°46'0 0.0
2017-Sep-12 09:00S 32°54' E 151°46'0 0.0
2017-Sep-12 08:30S 32°54' E 151°46'0 0.0
2017-Sep-12 08:00S 32°54' E 151°46'0 0.0
2017-Sep-12 07:30S 32°54' E 151°46'2 3.5
2017-Sep-12 07:00S 32°55' E 151°48'0 0.4
2017-Sep-12 06:30S 32°55' E 151°48'2 3.2
2017-Sep-12 05:51S 32°53' E 151°46'1 3.9
2017-Sep-12 05:30S 32°55' E 151°46'3 6.0
2017-Sep-12 05:00S 32°56' E 151°50'3 6.8
2017-Sep-12 04:30S 32°54' E 151°46'1 1.3
2017-Sep-12 03:58S 32°53' E 151°46'2 4.8
2017-Sep-12 03:29S 32°55' E 151°48'0 0.6
2017-Sep-12 03:01S 32°55' E 151°48'2 3.7
2017-Sep-12 02:28S 32°53' E 151°46'1 2.3
2017-Sep-12 02:00S 32°54' E 151°46'3 6.1
2017-Sep-12 01:31S 32°56' E 151°49'3 6.7
2017-Sep-12 01:01S 32°54' E 151°46'0 0.2
2017-Sep-12 00:01S 32°54' E 151°46'0 9.6
2017-Sep-12 00:00S 32°54' E 151°46'2 4.9
2017-Sep-11 23:30S 32°55' E 151°49'1 3.0
2017-Sep-11 23:01S 32°55' E 151°47'2 3.7
2017-Sep-11 22:29S 32°53' E 151°46'2 4.1
2017-Sep-11 22:00S 32°55' E 151°48'1 1.1
2017-Sep-11 21:30S 32°55' E 151°47'2 3.1
2017-Sep-11 20:53S 32°53' E 151°46'1 1.6
2017-Sep-11 20:28S 32°54' E 151°46'0 0.0
2017-Sep-11 19:58S 32°54' E 151°46'0 0.0
2017-Sep-11 19:28S 32°54' E 151°46'0 0.0
2017-Sep-11 18:58S 32°54' E 151°46'0 0.0
2017-Sep-11 18:28S 32°54' E 151°46'0 0.0
2017-Sep-11 17:58S 32°54' E 151°46'0 0.0
2017-Sep-11 17:28S 32°54' E 151°46'0 0.0
2017-Sep-11 16:58S 32°54' E 151°46'0 0.0
2017-Sep-11 16:28S 32°54' E 151°46'0 0.0
2017-Sep-11 15:58S 32°54' E 151°46'0 0.0
2017-Sep-11 15:28S 32°54' E 151°46'0 0.0
2017-Sep-11 14:58S 32°54' E 151°46'0 0.0
2017-Sep-11 14:28S 32°54' E 151°46'0 0.0
2017-Sep-11 13:58S 32°54' E 151°46'0 0.0
2017-Sep-11 13:25S 32°54' E 151°46'0 0.0
2017-Sep-11 12:58S 32°54' E 151°46'0 0.0
2017-Sep-11 12:28S 32°54' E 151°46'0 0.0
2017-Sep-11 11:58S 32°54' E 151°46'0 0.0
2017-Sep-11 11:28S 32°54' E 151°46'0 0.0
2017-Sep-11 10:58S 32°54' E 151°46'0 0.0
2017-Sep-11 10:28S 32°54' E 151°46'0 0.0
2017-Sep-11 09:58S 32°54' E 151°46'0 0.0
2017-Sep-11 09:28S 32°54' E 151°46'0 0.0
2017-Sep-11 08:58S 32°54' E 151°46'0 0.0
2017-Sep-11 08:28S 32°54' E 151°46'0 0.0
2017-Sep-11 07:58S 32°54' E 151°46'1 2.0
2017-Sep-11 07:30S 32°55' E 151°46'2 3.6
2017-Sep-11 07:00S 32°55' E 151°49'3 3.9
2017-Sep-11 06:22S 32°53' E 151°46'1 1.9
2017-Sep-11 06:00S 32°54' E 151°46'3 6.9
2017-Sep-11 05:30S 32°56' E 151°50'3 6.7
2017-Sep-11 05:00S 32°54' E 151°46'1 1.1
2017-Sep-11 04:29S 32°54' E 151°46'2 3.7
2017-Sep-11 04:00S 32°55' E 151°48'1 2.0
2017-Sep-11 03:30S 32°55' E 151°49'3 5.6
2017-Sep-11 02:59S 32°53' E 151°46'1 1.2
2017-Sep-11 02:28S 32°54' E 151°46'0 1.0
2017-Sep-11 02:00S 32°54' E 151°46'3 5.4
2017-Sep-11 01:30S 32°56' E 151°49'2 4.6
2017-Sep-11 01:00S 32°55' E 151°47'1 1.3
2017-Sep-11 00:23S 32°54' E 151°46'2 6.0
2017-Sep-11 00:00S 32°55' E 151°49'1 2.4
2017-Sep-10 23:30S 32°55' E 151°47'1 2.1
2017-Sep-10 23:00S 32°55' E 151°46'3 6.3
2017-Sep-10 22:30S 32°56' E 151°50'3 5.9
2017-Sep-10 22:00S 32°55' E 151°46'0 0.2
2017-Sep-10 21:30S 32°55' E 151°46'3 5.5
2017-Sep-10 21:00S 32°56' E 151°49'3 5.9
2017-Sep-10 20:30S 32°55' E 151°46'1 1.1
2017-Sep-10 19:58S 32°54' E 151°46'0 0.0
2017-Sep-10 19:28S 32°54' E 151°46'0 0.0
2017-Sep-10 18:58S 32°54' E 151°46'0 0.0
2017-Sep-10 18:28S 32°54' E 151°46'0 0.0
2017-Sep-10 17:58S 32°54' E 151°46'0 0.0
2017-Sep-10 17:28S 32°54' E 151°46'0 0.0
2017-Sep-10 16:58S 32°54' E 151°46'0 0.0
2017-Sep-10 16:28S 32°54' E 151°46'0 0.0
2017-Sep-10 15:58S 32°54' E 151°46'0 0.0
2017-Sep-10 15:28S 32°54' E 151°46'0 0.0
2017-Sep-10 14:58S 32°54' E 151°46'0 0.0
2017-Sep-10 13:58S 32°54' E 151°46'0 0.0
2017-Sep-10 13:28S 32°54' E 151°46'0 0.0
2017-Sep-10 12:58S 32°54' E 151°46'0 0.0
2017-Sep-10 12:28S 32°54' E 151°46'0 0.0
2017-Sep-10 11:58S 32°54' E 151°46'0 0.0
2017-Sep-10 11:28S 32°54' E 151°46'0 0.0
2017-Sep-10 10:58S 32°54' E 151°46'0 0.0
2017-Sep-10 10:28S 32°54' E 151°46'0 0.0
2017-Sep-10 09:58S 32°54' E 151°46'0 0.0
2017-Sep-10 09:28S 32°54' E 151°46'0 0.0
2017-Sep-10 08:58S 32°54' E 151°46'0 0.0
2017-Sep-10 08:28S 32°54' E 151°46'0 0.0
2017-Sep-10 07:58S 32°54' E 151°46'0 0.0
2017-Sep-10 07:28S 32°54' E 151°46'0 0.1
2017-Sep-10 06:56S 32°54' E 151°46'2 5.1
2017-Sep-10 06:29S 32°55' E 151°49'0 0.3
2017-Sep-10 06:00S 32°55' E 151°49'2 4.6
2017-Sep-10 05:30S 32°54' E 151°46'1 2.8
2017-Sep-10 05:00S 32°55' E 151°47'2 3.4
2017-Sep-10 04:30S 32°55' E 151°49'3 4.4
2017-Sep-10 03:53S 32°54' E 151°46'2 4.5
2017-Sep-10 03:30S 32°55' E 151°48'1 1.1
2017-Sep-10 03:01S 32°55' E 151°49'2 4.1
2017-Sep-10 02:30S 32°54' E 151°46'0 0.0
2017-Sep-10 01:58S 32°54' E 151°46'3 7.0
2017-Sep-10 01:30S 32°56' E 151°49'3 5.7
2017-Sep-10 01:00S 32°55' E 151°46'1 1.2
2017-Sep-10 00:29S 32°54' E 151°46'3 6.9
2017-Sep-10 00:00S 32°56' E 151°50'3 6.3
2017-Sep-09 23:30S 32°55' E 151°46'0 0.4
2017-Sep-09 23:00S 32°54' E 151°46'3 6.5
2017-Sep-09 22:30S 32°56' E 151°49'3 6.4
2017-Sep-09 22:00S 32°54' E 151°46'0 0.7
2017-Sep-09 21:30S 32°54' E 151°46'0 0.0
2017-Sep-09 21:00S 32°54' E 151°46'0 0.0
2017-Sep-09 20:30S 32°54' E 151°46'0 0.0
2017-Sep-09 20:00S 32°54' E 151°46'0 0.0
2017-Sep-09 19:30S 32°54' E 151°46'0 0.0
2017-Sep-09 19:00S 32°54' E 151°46'0 0.0
2017-Sep-09 18:30S 32°54' E 151°46'0 0.0
2017-Sep-09 18:00S 32°54' E 151°46'0 0.0
2017-Sep-09 17:30S 32°54' E 151°46'0 0.0
2017-Sep-09 17:00S 32°54' E 151°46'  

Dump ship's entire track history